Time;durP1;ratioP1;P1;durP2;ratioP2;P2;SDS_P1;SDS_P2;PMS_P1;PMS_P2;Temp;Humidity;BMP_temperature;BMP_pressure;BME280_temperature;BME280_humidity;BME280_pressure;Samples;Min_cycle;Max_cycle;Signal;HPM_P1;HPM_P2
2023/02/20 00:02:23;;;;;;;;;;;;;;;;;;5094328;28;19995;-71
2023/02/20 00:04:49;;;;;;;;;;;;;;;;;;5094666;28;19915;-71
2023/02/20 00:07:15;;;;;;;;;;;;;;;;;;5094646;28;19916;-70
2023/02/20 00:09:40;;;;;;;;;;;;;;;;;;5075532;28;19954;-71
2023/02/20 00:12:06;;;;;;;;;;;;;;;;;;5076483;28;19908;-71
2023/02/20 00:14:32;;;;;;;;;;;;;;;;;;5094616;28;19915;-71
2023/02/20 00:16:58;;;;;;;;;;;;;;;;;;5076006;28;20372;-72
2023/02/20 00:19:24;;;;;;;;;;;;;;;;;;5076270;28;20360;-71
2023/02/20 00:21:51;;;;;;;;;;;;;;;;;;5076260;28;19919;-71
2023/02/20 00:24:17;;;;;;;;;;;;;;;;;;5094132;28;19954;-71
2023/02/20 00:26:43;;;;;;;;;;;;;;;;;;5076171;28;19908;-71
2023/02/20 00:29:09;;;;;;;;;;;;;;;;;;5094225;28;19915;-72
2023/02/20 00:31:35;;;;;;;;;;;;;;;;;;5093843;28;19951;-71
2023/02/20 00:34:01;;;;;;;;;;;;;;;;;;5094125;28;19915;-71
2023/02/20 00:36:27;;;;;;;;;;;;;;;;;;5094151;28;19912;-71
2023/02/20 00:38:53;;;;;;;;;;;;;;;;;;5093745;28;19908;-70
2023/02/20 00:41:20;;;;;;;;;;;;;;;;;;5094068;28;19923;-71
2023/02/20 00:43:46;;;;;;;;;;;;;;;;;;5093981;28;19947;-71
2023/02/20 00:46:12;;;;;;;;;;;;;;;;;;5093622;28;19947;-71
2023/02/20 00:48:38;;;;;;;;;;;;;;;;;;5093949;28;19908;-71
2023/02/20 00:51:04;;;;;;;;;;;;;;;;;;5093624;28;19908;-71
2023/02/20 00:53:30;;;;;;;;;;;;;;;;;;5093976;28;19976;-71
2023/02/20 00:55:56;;;;;;;;;;;;;;;;;;5093882;28;19908;-71
2023/02/20 00:58:22;;;;;;;;;;;;;;;;;;5093448;28;19915;-71
2023/02/20 01:00:48;;;;;;;;;;;;;;;;;;5093711;28;19920;-71
2023/02/20 01:03:14;;;;;;;;;;;;;;;;;;5093812;28;19961;-71
2023/02/20 01:05:40;;;;;;;;;;;;;;;;;;5093468;28;19963;-71
2023/02/20 01:08:06;;;;;;;;;;;;;;;;;;5094437;28;20310;-71
2023/02/20 01:10:32;;;;;;;;;;;;;;;;;;5093741;28;19909;-71
2023/02/20 01:12:58;;;;;;;;;;;;;;;;;;5093458;28;19912;-71
2023/02/20 01:15:24;;;;;;;;;;;;;;;;;;5093739;28;20002;-71
2023/02/20 01:17:49;;;;;;;;;;;;;;;;;;5075677;28;19909;-71
2023/02/20 01:20:15;;;;;;;;;;;;;;;;;;5093289;28;19966;-71
2023/02/20 01:22:41;;;;;;;;;;;;;;;;;;5097027;28;19991;-72
2023/02/20 01:25:07;;;;;;;;;;;;;;;;;;5097708;28;20372;-71
2023/02/20 01:27:33;;;;;;;;;;;;;;;;;;5097416;28;19909;-72
2023/02/20 01:29:59;;;;;;;;;;;;;;;;;;5097623;28;19912;-72
2023/02/20 01:32:25;;;;;;;;;;;;;;;;;;5079450;28;19912;-72
2023/02/20 01:34:51;;;;;;;;;;;;;;;;;;5097169;28;19908;-71
2023/02/20 01:37:18;;;;;;;;;;;;;;;;;;5079550;28;19961;-71
2023/02/20 01:39:44;;;;;;;;;;;;;;;;;;5097511;28;19916;-72
2023/02/20 01:42:10;;;;;;;;;;;;;;;;;;5097147;28;20291;-71
2023/02/20 01:44:36;;;;;;;;;;;;;;;;;;5097408;28;19908;-71
2023/02/20 01:47:02;;;;;;;;;;;;;;;;;;5079101;28;19935;-71
2023/02/20 01:49:28;;;;;;;;;;;;;;;;;;5096948;28;19908;-71
2023/02/20 01:51:54;;;;;;;;;;;;;;;;;;5079171;28;19908;-72
2023/02/20 01:54:20;;;;;;;;;;;;;;;;;;5078701;28;19969;-72
2023/02/20 01:56:46;;;;;;;;;;;;;;;;;;5079254;28;20003;-71
2023/02/20 01:59:12;;;;;;;;;;;;;;;;;;5096870;28;19919;-71
2023/02/20 02:01:38;;;;;;;;;;;;;;;;;;5078605;28;19952;-71
2023/02/20 02:04:04;;;;;;;;;;;;;;;;;;5078800;28;19912;-71
2023/02/20 02:06:30;;;;;;;;;;;;;;;;;;5096937;28;19916;-71
2023/02/20 02:08:56;;;;;;;;;;;;;;;;;;5096478;28;20037;-71
2023/02/20 02:11:22;;;;;;;;;;;;;;;;;;5078682;28;19951;-71
2023/02/20 02:13:48;;;;;;;;;;;;;;;;;;5096877;28;19908;-71
2023/02/20 02:16:13;;;;;;;;;;;;;;;;;;5078293;28;19912;-72
2023/02/20 02:18:39;;;;;;;;;;;;;;;;;;5096714;28;19966;-71
2023/02/20 02:21:05;;;;;;;;;;;;;;;;;;5097162;28;20352;-72
2023/02/20 02:23:31;;;;;;;;;;;;;;;;;;5078045;28;19908;-71
2023/02/20 02:25:57;;;;;;;;;;;;;;;;;;5096668;28;19958;-71
2023/02/20 02:28:23;;;;;;;;;;;;;;;;;;5096591;28;20358;-72
2023/02/20 02:30:49;;;;;;;;;;;;;;;;;;5096078;28;20268;-71
2023/02/20 02:33:15;;;;;;;;;;;;;;;;;;5096001;28;20292;-71
2023/02/20 02:35:41;;;;;;;;;;;;;;;;;;5078448;28;20319;-71
2023/02/20 02:38:07;;;;;;;;;;;;;;;;;;5096033;28;20377;-71
2023/02/20 02:40:33;;;;;;;;;;;;;;;;;;5096292;28;20273;-72
2023/02/20 02:42:59;;;;;;;;;;;;;;;;;;5096277;28;20287;-71
2023/02/20 02:45:25;;;;;;;;;;;;;;;;;;5095820;28;20041;-72
2023/02/20 02:47:51;;;;;;;;;;;;;;;;;;5096513;28;19915;-72
2023/02/20 02:50:17;;;;;;;;;;;;;;;;;;5096179;28;19909;-71
2023/02/20 02:52:49;;;;;;;;;;;;;;;;;;5095772;28;20384;-71
2023/02/20 02:55:14;;;;;;;;;;;;;;;;;;5096271;28;19915;-71
2023/02/20 02:57:40;;;;;;;;;;;;;;;;;;5095639;28;20292;-72
2023/02/20 03:00:06;;;;;;;;;;;;;;;;;;5077556;28;20360;-71
2023/02/20 03:02:32;;;;;;;;;;;;;;;;;;5077750;28;19908;-72
2023/02/20 03:04:58;;;;;;;;;;;;;;;;;;5095596;28;19915;-71
2023/02/20 03:07:24;;;;;;;;;;;;;;;;;;5095684;28;19908;-71
2023/02/20 03:09:50;;;;;;;;;;;;;;;;;;5095708;28;19915;-71
2023/02/20 03:12:16;;;;;;;;;;;;;;;;;;5095376;28;19915;-71
2023/02/20 03:17:27;;;;;;;;;;;;;;;;;;5095659;28;19953;-72
2023/02/20 03:19:53;;;;;;;;;;;;;;;;;;5077012;28;19923;-71
2023/02/20 03:22:19;;;;;;;;;;;;;;;;;;5095606;28;20274;-72
2023/02/20 03:24:54;;;;;;;;;;;;;;;;;;5077338;28;19935;-71
2023/02/20 03:27:20;;;;;;;;;;;;;;;;;;5095072;28;19995;-71
2023/02/20 03:29:46;;;;;;;;;;;;;;;;;;5095354;28;19965;-72
2023/02/20 03:43:26;;;;;;;;;;;;;;;;;;5094999;28;19954;-72
2023/02/20 03:45:52;;;;;;;;;;;;;;;;;;5094824;28;19908;-70
2023/02/20 03:48:18;;;;;;;;;;;;;;;;;;5094727;28;20277;-71
2023/02/20 03:53:29;;;;;;;;;;;;;;;;;;5095030;28;19977;-71
2023/02/20 03:55:55;;;;;;;;;;;;;;;;;;5094530;28;19912;-71
2023/02/20 03:58:22;;;;;;;;;;;;;;;;;;5095032;28;20405;-71
2023/02/20 04:00:48;;;;;;;;;;;;;;;;;;5094179;28;19980;-71
2023/02/20 04:03:13;;;;;;;;;;;;;;;;;;5094813;28;19995;-72
2023/02/20 04:05:39;;;;;;;;;;;;;;;;;;5094640;28;19908;-71
2023/02/20 04:08:05;;;;;;;;;;;;;;;;;;5076073;28;19916;-71
2023/02/20 04:10:31;;;;;;;;;;;;;;;;;;5094635;28;19915;-71
2023/02/20 04:12:58;;;;;;;;;;;;;;;;;;5094746;28;20314;-71
2023/02/20 04:15:24;;;;;;;;;;;;;;;;;;5094207;28;20013;-71
2023/02/20 04:17:49;;;;;;;;;;;;;;;;;;5094802;28;19908;-71
2023/02/20 04:20:15;;;;;;;;;;;;;;;;;;5094425;28;20019;-71
2023/02/20 04:22:41;;;;;;;;;;;;;;;;;;5094061;28;20269;-71
2023/02/20 04:25:07;;;;;;;;;;;;;;;;;;5076152;28;19908;-71
2023/02/20 04:27:33;;;;;;;;;;;;;;;;;;5094343;28;19934;-71
2023/02/20 04:29:59;;;;;;;;;;;;;;;;;;5075798;28;19908;-71
2023/02/20 04:32:25;;;;;;;;;;;;;;;;;;5094293;28;19918;-72
2023/02/20 04:34:51;;;;;;;;;;;;;;;;;;5076165;28;19910;-71
2023/02/20 04:37:18;;;;;;;;;;;;;;;;;;5094105;28;19909;-71
2023/02/20 04:39:44;;;;;;;;;;;;;;;;;;5094305;28;19912;-71
2023/02/20 04:42:10;;;;;;;;;;;;;;;;;;5094237;28;19920;-71
2023/02/20 04:44:36;;;;;;;;;;;;;;;;;;5093657;28;19991;-71
2023/02/20 04:47:02;;;;;;;;;;;;;;;;;;5094052;28;19912;-71
2023/02/20 04:49:28;;;;;;;;;;;;;;;;;;5075848;28;19908;-70
2023/02/20 04:51:54;;;;;;;;;;;;;;;;;;5093571;28;19916;-70
2023/02/20 04:54:20;;;;;;;;;;;;;;;;;;5093934;28;19999;-71
2023/02/20 04:56:46;;;;;;;;;;;;;;;;;;5075617;28;19912;-71
2023/02/20 04:59:12;;;;;;;;;;;;;;;;;;5093185;28;19920;-71
2023/02/20 05:01:38;;;;;;;;;;;;;;;;;;5093711;28;19912;-69
2023/02/20 05:04:04;;;;;;;;;;;;;;;;;;5093978;28;20288;-70
2023/02/20 05:06:30;;;;;;;;;;;;;;;;;;5093865;28;20011;-70
2023/02/20 05:08:56;;;;;;;;;;;;;;;;;;5093859;28;20292;-70
2023/02/20 05:11:22;;;;;;;;;;;;;;;;;;5075327;28;20314;-71
2023/02/20 05:13:47;;;;;;;;;;;;;;;;;;5094214;28;19908;-70
2023/02/20 05:16:14;;;;;;;;;;;;;;;;;;5094058;28;19981;-70
2023/02/20 05:18:40;;;;;;;;;;;;;;;;;;5093330;28;19908;-70
2023/02/20 05:23:50;;;;;;;;;;;;;;;;;;5093940;28;19961;-71
2023/02/20 05:26:16;;;;;;;;;;;;;;;;;;5093519;28;20373;-71
2023/02/20 05:28:44;;;;;;;;;;;;;;;;;;5093549;28;20245;-70
2023/02/20 05:31:09;;;;;;;;;;;;;;;;;;5075564;28;19916;-71
2023/02/20 05:33:35;;;;;;;;;;;;;;;;;;5075070;28;19912;-70
2023/02/20 05:36:01;;;;;;;;;;;;;;;;;;5093536;28;19912;-70
2023/02/20 05:38:27;;;;;;;;;;;;;;;;;;5075417;28;19961;-70
2023/02/20 05:40:53;;;;;;;;;;;;;;;;;;5092957;28;19916;-71
2023/02/20 05:43:19;;;;;;;;;;;;;;;;;;5093442;28;19914;-70
2023/02/20 05:45:45;;;;;;;;;;;;;;;;;;5092899;28;19912;-70
2023/02/20 05:48:11;;;;;;;;;;;;;;;;;;5092307;28;19934;-71
2023/02/20 05:50:37;;;;;;;;;;;;;;;;;;5092081;28;20390;-70
2023/02/20 05:53:03;;;;;;;;;;;;;;;;;;5093255;28;19908;-70
2023/02/20 05:55:29;;;;;;;;;;;;;;;;;;5092873;28;20000;-70
2023/02/20 05:57:55;;;;;;;;;;;;;;;;;;5091847;28;19919;-71
2023/02/20 06:00:21;;;;;;;;;;;;;;;;;;5092509;28;20233;-71
2023/02/20 06:02:47;;;;;;;;;;;;;;;;;;5090282;28;20269;-72
2023/02/20 06:05:13;;;;;;;;;;;;;;;;;;5073716;28;20619;-74
2023/02/20 06:07:39;;;;;;;;;;;;;;;;;;5092446;28;19919;-75
2023/02/20 06:10:05;;;;;;;;;;;;;;;;;;5096728;28;19916;-75
2023/02/20 06:12:31;;;;;;;;;;;;;;;;;;5078799;28;19969;-76
2023/02/20 06:14:57;;;;;;;;;;;;;;;;;;5078370;28;19919;-78
2023/02/20 06:17:24;;;;;;;;;;;;;;;;;;5078219;28;19999;-77
2023/02/20 06:19:50;;;;;;;;;;;;;;;;;;5070340;28;20376;-78
2023/02/20 06:22:16;;;;;;;;;;;;;;;;;;5090635;28;20043;-75
2023/02/20 06:24:42;;;;;;;;;;;;;;;;;;5093201;28;19909;-78
2023/02/20 06:27:08;;;;;;;;;;;;;;;;;;5090133;28;19912;-79
2023/02/20 06:29:34;;;;;;;;;;;;;;;;;;5082967;28;19920;-75
2023/02/20 06:32:00;;;;;;;;;;;;;;;;;;5089851;28;19912;-69
2023/02/20 06:34:30;;;;;;;;;;;;;;;;;;5069544;28;20394;-71
2023/02/20 06:36:56;;;;;;;;;;;;;;;;;;5056415;28;19970;-70
2023/02/20 06:39:22;;;;;;;;;;;;;;;;;;5093855;28;19912;-69
2023/02/20 06:41:48;;;;;;;;;;;;;;;;;;5072191;28;19923;-71
2023/02/20 06:44:14;;;;;;;;;;;;;;;;;;5073068;28;19956;-70
2023/02/20 06:46:40;;;;;;;;;;;;;;;;;;5079932;28;19920;-70
2023/02/20 06:49:06;;;;;;;;;;;;;;;;;;5084828;28;19913;-69
2023/02/20 06:51:32;;;;;;;;;;;;;;;;;;5073237;28;19951;-69
2023/02/20 06:53:57;;;;;;;;;;;;;;;;;;5091670;28;20262;-71
2023/02/20 06:56:23;;;;;;;;;;;;;;;;;;5087253;28;19972;-69
2023/02/20 06:58:49;;;;;;;;;;;;;;;;;;5080886;28;19913;-70
2023/02/20 07:01:15;;;;;;;;;;;;;;;;;;5084263;28;20032;-69
2023/02/20 07:03:42;;;;;;;;;;;;;;;;;;5065321;28;19927;-69
2023/02/20 07:06:08;;;;;;;;;;;;;;;;;;5064466;28;19926;-70
2023/02/20 07:08:35;;;;;;;;;;;;;;;;;;5071453;28;20366;-70
2023/02/20 07:11:01;;;;;;;;;;;;;;;;;;5090146;28;19916;-70
2023/02/20 07:13:28;;;;;;;;;;;;;;;;;;5079679;28;20272;-69
2023/02/20 07:15:55;;;;;;;;;;;;;;;;;;5081928;28;20309;-69
2023/02/20 07:18:22;;;;;;;;;;;;;;;;;;5078619;28;19978;-69
2023/02/20 07:20:48;;;;;;;;;;;;;;;;;;5082538;28;19927;-69
2023/02/20 07:23:14;;;;;;;;;;;;;;;;;;5065129;28;19951;-68
2023/02/20 07:25:40;;;;;;;;;;;;;;;;;;5083185;28;19916;-72
2023/02/20 07:28:07;;;;;;;;;;;;;;;;;;5089473;28;19966;-69
2023/02/20 07:30:33;;;;;;;;;;;;;;;;;;5091968;28;19920;-69
2023/02/20 07:32:59;;;;;;;;;;;;;;;;;;5075163;28;19912;-68
2023/02/20 07:35:26;;;;;;;;;;;;;;;;;;5074637;28;19919;-69
2023/02/20 07:37:51;;;;;;;;;;;;;;;;;;5083158;28;19913;-69
2023/02/20 07:40:17;;;;;;;;;;;;;;;;;;5081711;28;19928;-73
2023/02/20 07:42:43;;;;;;;;;;;;;;;;;;5085221;28;19908;-73
2023/02/20 07:45:09;;;;;;;;;;;;;;;;;;5088198;28;19972;-71
2023/02/20 07:47:35;;;;;;;;;;;;;;;;;;5078610;28;19951;-71
2023/02/20 07:50:01;;;;;;;;;;;;;;;;;;5090464;28;19920;-71
2023/02/20 07:52:27;;;;;;;;;;;;;;;;;;5091343;28;19909;-72
2023/02/20 07:54:53;;;;;;;;;;;;;;;;;;5080665;28;19913;-72
2023/02/20 07:57:19;;;;;;;;;;;;;;;;;;5083657;28;19908;-71
2023/02/20 07:59:45;;;;;;;;;;;;;;;;;;5073017;28;19971;-71
2023/02/20 08:02:11;;;;;;;;;;;;;;;;;;5084409;28;20459;-68
2023/02/20 08:04:37;;;;;;;;;;;;;;;;;;5079371;28;20272;-68
2023/02/20 08:07:05;;;;;;;;;;;;;;;;;;5079936;28;19912;-70
2023/02/20 08:09:31;;;;;;;;;;;;;;;;;;5058143;28;20412;-71
2023/02/20 08:11:58;;;;;;;;;;;;;;;;;;5071613;28;19926;-67
2023/02/20 08:14:30;;;;;;;;;;;;;;;;;;5069826;28;20392;-70
2023/02/20 08:16:56;;;;;;;;;;;;;;;;;;5070655;28;19908;-71
2023/02/20 08:19:23;;;;;;;;;;;;;;;;;;5076345;28;20414;-69
2023/02/20 08:21:52;;;;;;;;;;;;;;;;;;5089846;28;19923;-69
2023/02/20 08:24:18;;;;;;;;;;;;;;;;;;5091432;28;19916;-69
2023/02/20 08:26:44;;;;;;;;;;;;;;;;;;5073428;28;19981;-70
2023/02/20 08:29:12;;;;;;;;;;;;;;;;;;5075115;28;19916;-69
2023/02/20 08:31:39;;;;;;;;;;;;;;;;;;5085264;28;20009;-69
2023/02/20 08:34:04;;;;;;;;;;;;;;;;;;5071827;28;19923;-69
2023/02/20 08:36:32;;;;;;;;;;;;;;;;;;5069187;28;19920;-68
2023/02/20 08:38:59;;;;;;;;;;;;;;;;;;5076079;28;19947;-71
2023/02/20 08:41:26;;;;;;;;;;;;;;;;;;5082268;28;19920;-73
2023/02/20 08:43:53;;;;;;;;;;;;;;;;;;5090651;28;20340;-71
2023/02/20 08:46:19;;;;;;;;;;;;;;;;;;5072050;28;20023;-71
2023/02/20 08:48:46;;;;;;;;;;;;;;;;;;5081019;28;19916;-71
2023/02/20 08:51:12;;;;;;;;;;;;;;;;;;5080819;28;19909;-71
2023/02/20 08:53:39;;;;;;;;;;;;;;;;;;5074449;28;19965;-72
2023/02/20 08:56:05;;;;;;;;;;;;;;;;;;5092216;28;20443;-72
2023/02/20 08:58:32;;;;;;;;;;;;;;;;;;5076524;28;19990;-72
2023/02/20 09:02:06;;;;;;;;;;;;;;;;;;5094860;27;19920;-69
2023/02/20 09:04:32;;;;;;;;;;;;;;;;;;5045079;28;19957;-71
2023/02/20 09:09:34;;;;;;;;;;;;;;;;;;5079370;27;20261;-70
2023/02/20 09:12:00;;;;;;;;;;;;;;;;;;5086272;28;19912;-70
2023/02/20 09:14:26;;;;;;;;;;;;;;;;;;5082069;28;19916;-72
2023/02/20 09:21:36;;;;;;;;;;;;;;;;;;5130016;27;19954;-73
2023/02/20 09:24:02;;;;;;;;;;;;;;;;;;5115071;28;19955;-69
2023/02/20 09:26:28;;;;;;;;;;;;;;;;;;5109201;28;19912;-70
2023/02/20 09:30:56;;;;;;;;;;;;;;;;;;5101746;27;19923;-73
2023/02/20 09:33:22;;;;;;;;;;;;;;;;;;5109126;28;19912;-72
2023/02/20 09:35:51;;;;;;;;;;;;;;;;;;5113811;28;19922;-72
2023/02/20 09:39:43;;;;;;;;;;;;;;;;;;5118541;27;20522;-74
2023/02/20 09:43:14;;;;;;;;;;;;;;;;;;4673764;27;12738055;-68
2023/02/20 09:45:39;;;;;;;;;;;;;;;;;;5102074;28;19927;-73
2023/02/20 09:48:07;;;;;;;;;;;;;;;;;;5091485;28;19916;-66
2023/02/20 09:52:10;;;;;;;;;;;;;;;;;;5083051;27;19921;-68
2023/02/20 09:55:18;;;;;;;;;;;;;;;;;;5070975;27;19926;-68
2023/02/20 09:57:44;;;;;;;;;;;;;;;;;;5074230;28;19920;-69
2023/02/20 10:00:11;;;;;;;;;;;;;;;;;;5073464;28;19928;-69
2023/02/20 10:02:37;;;;;;;;;;;;;;;;;;5079805;28;19912;-69
2023/02/20 10:05:18;;;;;;;;;;;;;;;;;;5106885;27;19928;-70
2023/02/20 10:09:05;;;;;;;;;;;;;;;;;;5103897;27;19917;-70
2023/02/20 10:11:31;;;;;;;;;;;;;;;;;;5086291;28;19912;-70
2023/02/20 10:15:30;;;;;;;;;;;;;;;;;;5026299;27;3418297;-69
2023/02/20 10:17:56;;;;;;;;;;;;;;;;;;5147053;27;19916;-68
2023/02/20 10:20:25;;;;;;;;;;;;;;;;;;5144289;27;20363;-69
2023/02/20 10:29:42;;;;;;;;;;;;;;;;;;5064227;28;19920;-72
2023/02/20 10:32:08;;;;;;;;;;;;;;;;;;5038793;28;19967;-73
2023/02/20 10:34:35;;;;;;;;;;;;;;;;;;5048041;28;19909;-72
2023/02/20 10:39:07;;;;;;;;;;;;;;;;;;5067253;28;20396;-72
2023/02/20 10:41:34;;;;;;;;;;;;;;;;;;5066617;28;19956;-71
2023/02/20 10:44:02;;;;;;;;;;;;;;;;;;5066438;28;19916;-72
2023/02/20 10:46:28;;;;;;;;;;;;;;;;;;5047174;28;19913;-74
2023/02/20 10:48:55;;;;;;;;;;;;;;;;;;5065269;28;19908;-72
2023/02/20 10:51:21;;;;;;;;;;;;;;;;;;5063512;28;19928;-70
2023/02/20 10:53:47;;;;;;;;;;;;;;;;;;5059346;28;20039;-73
2023/02/20 10:58:19;;;;;;;;;;;;;;;;;;5047350;28;19936;-71
2023/02/20 11:01:47;;;;;;;;;;;;;;;;;;5083235;27;19923;-71
2023/02/20 11:04:14;;;;;;;;;;;;;;;;;;5061980;28;20276;-71
2023/02/20 11:06:40;;;;;;;;;;;;;;;;;;5069666;28;20380;-69
2023/02/20 11:09:51;;;;;;;;;;;;;;;;;;5089014;27;19920;-70
2023/02/20 11:12:16;;;;;;;;;;;;;;;;;;5088900;28;19916;-71
2023/02/20 11:14:42;;;;;;;;;;;;;;;;;;5089291;28;20006;-68
2023/02/20 11:17:09;;;;;;;;;;;;;;;;;;5088845;28;19912;-68
2023/02/20 11:19:35;;;;;;;;;;;;;;;;;;5088443;28;19913;-68
2023/02/20 11:22:01;;;;;;;;;;;;;;;;;;5089386;28;19918;-67
2023/02/20 11:25:00;;;;;;;;;;;;;;;;;;5108354;27;19919;-68
2023/02/20 11:27:26;;;;;;;;;;;;;;;;;;5095873;28;19916;-68
2023/02/20 11:29:52;;;;;;;;;;;;;;;;;;5102865;28;19962;-67
2023/02/20 11:32:18;;;;;;;;;;;;;;;;;;5074770;28;20296;-67
2023/02/20 11:35:25;;;;;;;;;;;;;;;;;;5126642;27;19920;-69
2023/02/20 11:40:27;;;;;;;;;;;;;;;;;;5105491;27;19920;-67
2023/02/20 11:43:43;;;;;;;;;;;;;;;;;;5148709;27;19925;-67
2023/02/20 11:46:09;;;;;;;;;;;;;;;;;;5147789;27;19919;-68
2023/02/20 11:50:00;;;;;;;;;;;;;;;;;;5085705;27;20380;-68
2023/02/20 11:54:39;;;;;;;;;;;;;;;;;;5104712;27;19927;-67
2023/02/20 11:59:35;;;;;;;;;;;;;;;;;;5089633;27;19913;-68
2023/02/20 12:02:01;;;;;;;;;;;;;;;;;;5076545;28;19919;-69
2023/02/20 12:09:40;;;;;;;;;;;;;;;;;;5148501;27;20019;-67
2023/02/20 12:12:06;;;;;;;;;;;;;;;;;;5128721;27;20438;-69
2023/02/20 12:14:32;;;;;;;;;;;;;;;;;;5135909;27;19915;-68
2023/02/20 12:16:58;;;;;;;;;;;;;;;;;;5150112;27;19918;-69
2023/02/20 12:20:23;;;;;;;;;;;;;;;;;;5078343;27;19927;-68
2023/02/20 12:22:49;;;;;;;;;;;;;;;;;;5066423;28;19913;-66
2023/02/20 12:25:15;;;;;;;;;;;;;;;;;;5066810;28;20023;-67
2023/02/20 12:27:41;;;;;;;;;;;;;;;;;;5066289;28;20288;-67
2023/02/20 12:30:07;;;;;;;;;;;;;;;;;;5066134;28;19971;-66
2023/02/20 12:32:33;;;;;;;;;;;;;;;;;;5068371;28;19963;-68
2023/02/20 12:34:59;;;;;;;;;;;;;;;;;;5067601;28;19912;-69
2023/02/20 12:37:25;;;;;;;;;;;;;;;;;;5067283;28;19924;-70
2023/02/20 12:40:52;;;;;;;;;;;;;;;;;;5083067;28;19917;-67
2023/02/20 12:43:18;;;;;;;;;;;;;;;;;;5061897;28;19919;-69
2023/02/20 12:46:46;;;;;;;;;;;;;;;;;;5088202;27;19939;-72
2023/02/20 12:49:12;;;;;;;;;;;;;;;;;;5086513;28;20412;-69
2023/02/20 12:51:38;;;;;;;;;;;;;;;;;;5086438;28;19914;-70
2023/02/20 12:54:04;;;;;;;;;;;;;;;;;;5085777;28;19948;-69
2023/02/20 12:56:30;;;;;;;;;;;;;;;;;;5086012;28;20539;-70
2023/02/20 12:58:56;;;;;;;;;;;;;;;;;;5080145;28;19913;-69
2023/02/20 13:01:22;;;;;;;;;;;;;;;;;;5090115;28;20281;-68
2023/02/20 13:03:48;;;;;;;;;;;;;;;;;;5083826;28;19956;-72
2023/02/20 13:06:14;;;;;;;;;;;;;;;;;;5088845;28;20365;-72
2023/02/20 13:10:36;;;;;;;;;;;;;;;;;;5124184;27;20391;-72
2023/02/20 13:13:02;;;;;;;;;;;;;;;;;;5093240;28;19912;-72
2023/02/20 13:15:28;;;;;;;;;;;;;;;;;;5109272;28;19912;-71
2023/02/20 13:17:54;;;;;;;;;;;;;;;;;;5109945;28;19919;-71
2023/02/20 13:20:20;;;;;;;;;;;;;;;;;;5092738;28;19912;-71
2023/02/20 13:22:46;;;;;;;;;;;;;;;;;;5093938;28;19921;-74
2023/02/20 13:25:12;;;;;;;;;;;;;;;;;;5096480;28;20019;-73
2023/02/20 13:27:38;;;;;;;;;;;;;;;;;;5090131;28;19913;-73
2023/02/20 13:30:03;;;;;;;;;;;;;;;;;;5099451;28;19923;-72
2023/02/20 13:32:29;;;;;;;;;;;;;;;;;;5115540;28;19957;-74
2023/02/20 13:35:02;;;;;;;;;;;;;;;;;;5110808;28;19912;-74
2023/02/20 13:40:00;;;;;;;;;;;;;;;;;;5172753;27;20371;-74
2023/02/20 13:42:26;;;;;;;;;;;;;;;;;;5139941;27;20333;-73
2023/02/20 13:45:08;;;;;;;;;;;;;;;;;;5172746;27;20076;-74
2023/02/20 13:47:36;;;;;;;;;;;;;;;;;;5168265;27;20011;-73
2023/02/20 13:50:03;;;;;;;;;;;;;;;;;;5156697;27;20043;-76
2023/02/20 13:54:40;;;;;;;;;;;;;;;;;;5090171;27;19920;-75
2023/02/20 13:59:49;;;;;;;;;;;;;;;;;;5134096;27;20018;-69
2023/02/20 14:02:16;;;;;;;;;;;;;;;;;;5131652;28;19998;-69
2023/02/20 14:04:42;;;;;;;;;;;;;;;;;;5131422;28;19930;-70
2023/02/20 14:07:08;;;;;;;;;;;;;;;;;;5130762;28;19908;-70
2023/02/20 14:09:34;;;;;;;;;;;;;;;;;;5112267;28;19943;-70
2023/02/20 14:12:02;;;;;;;;;;;;;;;;;;5130975;28;19914;-70
2023/02/20 14:14:28;;;;;;;;;;;;;;;;;;5130522;28;19934;-71
2023/02/20 14:16:54;;;;;;;;;;;;;;;;;;5130909;28;19907;-71
2023/02/20 14:19:20;;;;;;;;;;;;;;;;;;5130670;28;19915;-71
2023/02/20 14:21:45;;;;;;;;;;;;;;;;;;5130133;28;19999;-72
2023/02/20 14:24:11;;;;;;;;;;;;;;;;;;5112546;28;20376;-71
2023/02/20 14:27:54;;;;;;;;;;;;;;;;;;5109339;27;20413;-71
2023/02/20 14:30:20;;;;;;;;;;;;;;;;;;5110172;28;19994;-71
2023/02/20 14:32:45;;;;;;;;;;;;;;;;;;5109911;28;20382;-71
2023/02/20 14:38:18;;;;;;;;;;;;;;;;;;5111854;27;19916;-71
2023/02/20 14:43:12;;;;;;;;;;;;;;;;;;5091323;27;19923;-70
2023/02/20 14:45:40;;;;;;;;;;;;;;;;;;5090036;28;19912;-70
2023/02/20 14:51:08;;;;;;;;;;;;;;;;;;5131903;27;20329;-69
2023/02/20 14:53:34;;;;;;;;;;;;;;;;;;5113598;28;19935;-71
2023/02/20 14:56:00;;;;;;;;;;;;;;;;;;5113153;28;19908;-72
2023/02/20 14:58:27;;;;;;;;;;;;;;;;;;5113498;28;19908;-71
2023/02/20 15:00:53;;;;;;;;;;;;;;;;;;5131861;28;20439;-71
2023/02/20 15:03:39;;;;;;;;;;;;;;;;;;5090714;27;19923;-70
2023/02/20 15:06:05;;;;;;;;;;;;;;;;;;5089880;28;20003;-70
2023/02/20 15:08:31;;;;;;;;;;;;;;;;;;5091124;28;19957;-70
2023/02/20 15:10:56;;;;;;;;;;;;;;;;;;5089521;28;19908;-70
2023/02/20 15:13:23;;;;;;;;;;;;;;;;;;5090973;28;19954;-70
2023/02/20 15:17:00;;;;;;;;;;;;;;;;;;5103014;27;19979;-70
2023/02/20 15:22:51;;;;;;;;;;;;;;;;;;5092076;27;19922;-72
2023/02/20 15:25:17;;;;;;;;;;;;;;;;;;5090748;28;20343;-72
2023/02/20 15:27:43;;;;;;;;;;;;;;;;;;5091159;28;19908;-70
2023/02/20 15:30:09;;;;;;;;;;;;;;;;;;5090648;28;19908;-69
2023/02/20 15:32:34;;;;;;;;;;;;;;;;;;5090964;28;19915;-72
2023/02/20 15:35:00;;;;;;;;;;;;;;;;;;5091088;28;20015;-70
2023/02/20 15:37:27;;;;;;;;;;;;;;;;;;5090639;28;19908;-72
2023/02/20 15:39:52;;;;;;;;;;;;;;;;;;5090938;28;20426;-70
2023/02/20 15:42:58;;;;;;;;;;;;;;;;;;5111763;27;19915;-70
2023/02/20 15:47:36;;;;;;;;;;;;;;;;;;5111981;27;20418;-72
2023/02/20 15:52:08;;;;;;;;;;;;;;;;;;5111211;27;19923;-71
2023/02/20 15:54:34;;;;;;;;;;;;;;;;;;5111678;28;20002;-72
2023/02/20 15:58:58;;;;;;;;;;;;;;;;;;5091329;27;19912;-70
2023/02/20 16:01:57;;;;;;;;;;;;;;;;;;5153138;27;20015;-72
2023/02/20 16:05:18;;;;;;;;;;;;;;;;;;5112033;27;19923;-72
2023/02/20 16:12:08;;;;;;;;;;;;;;;;;;5091437;27;19916;-72
2023/02/20 16:14:34;;;;;;;;;;;;;;;;;;5089523;28;20014;-72
2023/02/20 16:17:00;;;;;;;;;;;;;;;;;;5089929;28;19908;-72
2023/02/20 16:19:27;;;;;;;;;;;;;;;;;;5089479;28;19908;-72
2023/02/20 16:21:53;;;;;;;;;;;;;;;;;;5091097;28;20279;-72
2023/02/20 16:24:20;;;;;;;;;;;;;;;;;;5091287;28;19909;-72
2023/02/20 16:28:07;;;;;;;;;;;;;;;;;;5090931;27;20380;-72
2023/02/20 16:33:44;;;;;;;;;;;;;;;;;;5111512;27;19918;-72
2023/02/20 16:36:10;;;;;;;;;;;;;;;;;;5110368;28;19998;-71
2023/02/20 16:38:36;;;;;;;;;;;;;;;;;;5111683;28;19908;-71
2023/02/20 16:41:03;;;;;;;;;;;;;;;;;;5111263;28;19957;-72
2023/02/20 16:44:37;;;;;;;;;;;;;;;;;;5091901;28;19927;-72
2023/02/20 16:47:03;;;;;;;;;;;;;;;;;;5091219;28;19954;-71
2023/02/20 16:49:35;;;;;;;;;;;;;;;;;;5089369;28;19936;-71
2023/02/20 16:52:08;;;;;;;;;;;;;;;;;;5091347;28;19909;-71
2023/02/20 16:54:34;;;;;;;;;;;;;;;;;;5090760;28;19909;-71
2023/02/20 16:57:00;;;;;;;;;;;;;;;;;;5091036;28;20418;-71
2023/02/20 16:59:26;;;;;;;;;;;;;;;;;;5090980;28;19912;-71
2023/02/20 17:01:51;;;;;;;;;;;;;;;;;;5089324;28;19969;-71
2023/02/20 17:04:18;;;;;;;;;;;;;;;;;;5090710;28;19917;-71
2023/02/20 17:06:44;;;;;;;;;;;;;;;;;;5089401;28;20415;-71
2023/02/20 17:09:10;;;;;;;;;;;;;;;;;;5090714;28;19908;-71
2023/02/20 17:11:36;;;;;;;;;;;;;;;;;;5090791;28;19938;-71
2023/02/20 17:14:02;;;;;;;;;;;;;;;;;;5089317;28;19908;-73
2023/02/20 17:16:28;;;;;;;;;;;;;;;;;;5090282;28;19915;-71
2023/02/20 17:18:54;;;;;;;;;;;;;;;;;;5090586;28;19948;-71
2023/02/20 17:21:20;;;;;;;;;;;;;;;;;;5090621;28;19909;-71
2023/02/20 17:23:46;;;;;;;;;;;;;;;;;;5090045;28;20019;-71
2023/02/20 17:26:12;;;;;;;;;;;;;;;;;;5089462;28;19938;-71
2023/02/20 17:28:38;;;;;;;;;;;;;;;;;;5090458;28;19908;-71
2023/02/20 17:31:03;;;;;;;;;;;;;;;;;;5089936;28;19962;-71
2023/02/20 17:33:29;;;;;;;;;;;;;;;;;;5088982;28;19909;-71
2023/02/20 17:35:55;;;;;;;;;;;;;;;;;;5089029;28;19912;-71
2023/02/20 17:38:23;;;;;;;;;;;;;;;;;;5089887;28;19912;-71
2023/02/20 17:40:49;;;;;;;;;;;;;;;;;;5090194;28;19909;-71
2023/02/20 17:43:15;;;;;;;;;;;;;;;;;;5099352;28;20437;-71
2023/02/20 17:45:41;;;;;;;;;;;;;;;;;;5091710;28;19915;-70
2023/02/20 17:48:07;;;;;;;;;;;;;;;;;;5110593;28;19908;-70
2023/02/20 17:50:33;;;;;;;;;;;;;;;;;;5110386;28;19909;-71
2023/02/20 17:52:59;;;;;;;;;;;;;;;;;;5109967;28;20002;-71
2023/02/20 17:55:25;;;;;;;;;;;;;;;;;;5099661;28;19908;-72
2023/02/20 17:57:51;;;;;;;;;;;;;;;;;;5096265;28;19908;-71
2023/02/20 18:00:17;;;;;;;;;;;;;;;;;;5096583;28;20373;-71
2023/02/20 18:02:43;;;;;;;;;;;;;;;;;;5096473;28;20429;-71
2023/02/20 18:05:09;;;;;;;;;;;;;;;;;;5096352;28;20425;-70
2023/02/20 18:07:35;;;;;;;;;;;;;;;;;;5096511;28;19961;-71
2023/02/20 18:10:01;;;;;;;;;;;;;;;;;;5096623;28;19908;-71
2023/02/20 18:12:27;;;;;;;;;;;;;;;;;;5096138;28;19908;-71
2023/02/20 18:14:53;;;;;;;;;;;;;;;;;;5096444;28;20034;-71
2023/02/20 18:17:19;;;;;;;;;;;;;;;;;;5078108;28;19912;-71
2023/02/20 18:19:45;;;;;;;;;;;;;;;;;;5095874;28;19912;-71
2023/02/20 18:22:11;;;;;;;;;;;;;;;;;;5096321;28;19934;-71
2023/02/20 18:24:37;;;;;;;;;;;;;;;;;;5078071;28;20004;-71
2023/02/20 18:27:03;;;;;;;;;;;;;;;;;;5077565;28;19908;-72
2023/02/20 18:29:29;;;;;;;;;;;;;;;;;;5096122;28;19915;-72
2023/02/20 18:31:55;;;;;;;;;;;;;;;;;;5096005;28;19912;-72